createdAt,value
2023-05-12T00:00:35.300Z,19.25
2023-05-12T00:03:04.519Z,19.26
2023-05-12T00:05:33.125Z,19.28
2023-05-12T00:08:02.822Z,19.31
2023-05-12T00:10:31.198Z,19.31
2023-05-12T00:12:59.696Z,19.30
2023-05-12T00:15:28.028Z,19.30
2023-05-12T00:17:56.435Z,19.31
2023-05-12T00:20:24.736Z,19.32
2023-05-12T00:22:53.039Z,19.32
2023-05-12T00:25:22.846Z,19.31
2023-05-12T00:27:51.182Z,19.29
2023-05-12T00:30:19.977Z,19.25
2023-05-12T00:32:48.589Z,19.24
2023-05-12T00:35:17.924Z,19.22
2023-05-12T00:37:46.349Z,19.22
2023-05-12T00:40:14.904Z,19.21
2023-05-12T00:42:44.753Z,19.20
2023-05-12T00:45:13.513Z,19.19
2023-05-12T00:47:41.889Z,19.21
2023-05-12T00:50:11.905Z,19.22
2023-05-12T00:52:40.366Z,19.22
2023-05-12T00:55:09.943Z,19.22
2023-05-12T00:57:38.287Z,19.24
2023-05-12T01:00:12.348Z,19.24
2023-05-12T01:02:41.604Z,19.25
2023-05-12T01:05:11.419Z,19.24
2023-05-12T01:07:41.766Z,19.23
2023-05-12T01:10:20.283Z,19.19
2023-05-12T01:12:49.242Z,19.19
2023-05-12T01:15:19.858Z,19.17
2023-05-12T01:17:56.218Z,19.17
2023-05-12T01:20:27.977Z,19.16
2023-05-12T01:22:56.739Z,19.17
2023-05-12T01:25:26.127Z,19.15
2023-05-12T01:27:56.359Z,19.10
2023-05-12T01:30:25.679Z,19.04
2023-05-12T01:32:54.707Z,18.99
2023-05-12T01:35:23.155Z,18.96
2023-05-12T01:37:52.006Z,18.93
2023-05-12T01:40:21.312Z,18.88
2023-05-12T01:42:50.765Z,18.81
2023-05-12T01:45:20.698Z,18.74
2023-05-12T01:47:49.044Z,18.68
2023-05-12T01:50:17.873Z,18.63
2023-05-12T01:52:46.351Z,18.57
2023-05-12T01:55:14.688Z,18.52
2023-05-12T01:57:42.987Z,18.47
2023-05-12T02:00:13.460Z,18.41
2023-05-12T02:02:43.921Z,18.38
2023-05-12T02:05:12.702Z,18.32
2023-05-12T02:07:41.027Z,18.26
2023-05-12T02:10:10.763Z,18.20
2023-05-12T02:12:39.137Z,18.16
2023-05-12T02:15:11.603Z,18.11
2023-05-12T02:17:39.985Z,18.10
2023-05-12T02:20:12.301Z,18.06
2023-05-12T02:22:40.712Z,18.03
2023-05-12T02:25:10.455Z,18.02
2023-05-12T02:27:38.831Z,18.00
2023-05-12T02:30:09.259Z,17.99
2023-05-12T02:32:38.104Z,17.96
2023-05-12T02:35:09.680Z,17.93
2023-05-12T02:37:38.027Z,17.89
2023-05-12T02:40:08.510Z,17.84
2023-05-12T02:42:38.521Z,17.82
2023-05-12T02:45:08.831Z,17.80
2023-05-12T02:47:37.254Z,17.78
2023-05-12T02:50:06.850Z,17.77
2023-05-12T02:52:36.542Z,17.76
2023-05-12T02:55:05.328Z,17.75
2023-05-12T02:57:34.275Z,17.74
2023-05-12T03:00:04.946Z,17.72
2023-05-12T03:02:33.382Z,17.71
2023-05-12T03:05:02.057Z,17.67
2023-05-12T03:07:30.664Z,17.65
2023-05-12T03:10:01.684Z,17.64
2023-05-12T03:12:30.023Z,17.63
2023-05-12T03:14:58.653Z,17.62
2023-05-12T03:17:27.290Z,17.61
2023-05-12T03:19:55.700Z,17.58
2023-05-12T03:22:24.119Z,17.54
2023-05-12T03:24:52.790Z,17.52
2023-05-12T03:27:23.008Z,17.53
2023-05-12T03:29:51.910Z,17.51
2023-05-12T03:32:20.472Z,17.49
2023-05-12T03:34:48.755Z,17.48
2023-05-12T03:37:17.318Z,17.45
2023-05-12T03:39:45.617Z,17.42
2023-05-12T03:42:14.740Z,17.40
2023-05-12T03:44:44.785Z,17.37
2023-05-12T03:47:13.749Z,17.38
2023-05-12T03:49:42.129Z,17.38
2023-05-12T03:52:10.457Z,17.38
2023-05-12T03:54:38.770Z,17.39
2023-05-12T03:57:08.272Z,17.41
2023-05-12T03:59:36.537Z,17.41
2023-05-12T04:02:07.827Z,17.43
2023-05-12T04:04:36.865Z,17.43
2023-05-12T04:07:05.514Z,17.44
2023-05-12T04:09:34.283Z,17.43
2023-05-12T04:12:02.630Z,17.45
2023-05-12T04:14:41.630Z,17.45
2023-05-12T04:17:12.385Z,17.44
2023-05-12T04:19:40.689Z,17.43
2023-05-12T04:22:08.971Z,17.42
2023-05-12T04:24:39.377Z,17.41
2023-05-12T04:27:08.108Z,17.39
2023-05-12T04:29:37.098Z,17.38
2023-05-12T04:32:06.294Z,17.37
2023-05-12T04:34:36.089Z,17.39
2023-05-12T04:37:04.529Z,17.40
2023-05-12T04:39:32.816Z,17.41
2023-05-12T04:42:02.372Z,17.41
2023-05-12T04:44:30.702Z,17.41
2023-05-12T04:46:58.993Z,17.41
2023-05-12T04:49:27.240Z,17.42
2023-05-12T04:51:56.988Z,17.44
2023-05-12T04:54:25.328Z,17.46
2023-05-12T04:56:54.962Z,17.45
2023-05-12T04:59:23.249Z,17.44
2023-05-12T05:01:51.929Z,17.45
2023-05-12T05:04:20.884Z,17.45
2023-05-12T05:06:49.125Z,17.45
2023-05-12T05:09:18.972Z,17.47
2023-05-12T05:11:48.130Z,17.49
2023-05-12T05:14:16.477Z,17.50
2023-05-12T05:16:45.403Z,17.52
2023-05-12T05:19:21.198Z,17.53
2023-05-12T05:21:53.932Z,17.52
2023-05-12T05:24:24.444Z,17.51
2023-05-12T05:26:52.756Z,17.51
2023-05-12T05:29:21.117Z,17.50
2023-05-12T05:31:49.522Z,17.51
2023-05-12T05:34:18.653Z,17.51
2023-05-12T05:36:47.281Z,17.54
2023-05-12T05:39:15.716Z,17.58
2023-05-12T05:41:45.432Z,17.59
2023-05-12T05:44:13.719Z,17.62
2023-05-12T05:46:42.040Z,17.64
2023-05-12T05:49:10.387Z,17.65
2023-05-12T05:51:38.799Z,17.65
2023-05-12T05:54:07.307Z,17.63
2023-05-12T05:56:36.145Z,17.62
2023-05-12T05:59:06.395Z,17.60
2023-05-12T06:01:34.859Z,17.60
2023-05-12T06:04:03.599Z,17.59
2023-05-12T06:06:32.139Z,17.60
2023-05-12T06:09:00.666Z,17.59
2023-05-12T06:11:29.095Z,17.60
2023-05-12T06:13:57.400Z,17.61
2023-05-12T06:16:27.164Z,17.62
2023-05-12T06:18:55.577Z,17.62
2023-05-12T06:21:23.958Z,17.61
2023-05-12T06:23:52.441Z,17.63
2023-05-12T06:26:21.404Z,17.63
2023-05-12T06:28:50.068Z,17.62
2023-05-12T06:31:18.463Z,17.61
2023-05-12T06:33:48.648Z,17.63
2023-05-12T06:36:16.975Z,17.67
2023-05-12T06:38:45.289Z,17.69
2023-05-12T06:41:13.599Z,17.69
2023-05-12T06:43:41.929Z,17.68
2023-05-12T06:46:10.792Z,17.69
2023-05-12T06:48:39.191Z,17.69
2023-05-12T06:51:09.438Z,17.71
2023-05-12T06:53:38.247Z,17.71
2023-05-12T06:56:07.126Z,17.74
2023-05-12T06:58:36.307Z,17.74
2023-05-12T07:01:04.825Z,17.76
2023-05-12T07:03:34.382Z,17.77
2023-05-12T07:06:02.840Z,17.77
2023-05-12T07:08:32.664Z,17.76
2023-05-12T07:11:01.599Z,17.74
2023-05-12T07:13:30.219Z,17.73
2023-05-12T07:15:58.665Z,17.75
2023-05-12T07:18:27.364Z,17.75
2023-05-12T07:20:55.900Z,17.75
2023-05-12T07:23:24.445Z,17.77
2023-05-12T07:25:54.462Z,17.80
2023-05-12T07:28:22.827Z,17.85
2023-05-12T07:30:51.294Z,17.88
2023-05-12T07:33:19.818Z,17.90
2023-05-12T07:35:48.296Z,17.91
2023-05-12T07:38:17.541Z,17.91
2023-05-12T07:40:46.180Z,17.94
2023-05-12T07:43:17.480Z,17.97
2023-05-12T07:45:46.670Z,17.97
2023-05-12T07:48:15.222Z,17.96
2023-05-12T07:50:43.995Z,17.96
2023-05-12T07:53:12.419Z,17.99
2023-05-12T07:55:41.266Z,18.00
2023-05-12T07:58:09.684Z,18.07
2023-05-12T08:00:39.624Z,18.13
2023-05-12T08:03:08.229Z,18.20
2023-05-12T08:05:36.809Z,18.21
2023-05-12T08:08:05.417Z,18.24
2023-05-12T08:10:34.026Z,18.26
2023-05-12T08:13:02.387Z,18.27
2023-05-12T08:15:30.756Z,18.27
2023-05-12T08:18:00.616Z,18.31
2023-05-12T08:20:29.097Z,18.38
2023-05-12T08:22:57.516Z,18.45
2023-05-12T08:25:27.920Z,18.49
2023-05-12T08:27:57.572Z,18.55
2023-05-12T08:30:26.075Z,18.61
2023-05-12T08:32:55.469Z,18.68
2023-05-12T08:35:26.224Z,18.72
2023-05-12T08:37:54.773Z,18.79
2023-05-12T08:40:25.772Z,18.82
2023-05-12T08:43:05.522Z,18.87
2023-05-12T08:45:34.193Z,18.95
2023-05-12T08:48:04.016Z,18.98
2023-05-12T08:50:36.726Z,19.03
2023-05-12T08:53:08.631Z,19.04
2023-05-12T08:55:37.306Z,19.01
2023-05-12T08:58:06.429Z,18.98
2023-05-12T09:00:37.337Z,18.94
2023-05-12T09:03:08.415Z,18.87
2023-05-12T09:05:38.705Z,18.80
2023-05-12T09:08:07.787Z,18.70
2023-05-12T09:10:36.914Z,18.57
2023-05-12T09:13:21.352Z,18.49
2023-05-12T09:15:51.588Z,18.47
2023-05-12T09:18:20.272Z,18.42
2023-05-12T09:20:50.387Z,18.36
2023-05-12T09:23:22.179Z,18.30
2023-05-12T09:26:01.998Z,18.19
2023-05-12T09:28:38.632Z,18.13
2023-05-12T09:31:20.754Z,18.03
2023-05-12T09:33:49.343Z,18.00
2023-05-12T09:36:24.554Z,18.06
2023-05-12T09:39:04.888Z,18.20
2023-05-12T09:41:36.512Z,18.38
2023-05-12T09:44:05.652Z,18.50
2023-05-12T09:46:34.663Z,18.51
2023-05-12T09:49:05.998Z,18.46
2023-05-12T09:51:35.984Z,18.35
2023-05-12T09:54:06.443Z,18.27
2023-05-12T09:56:39.700Z,18.16
2023-05-12T09:59:08.599Z,18.07
2023-05-12T10:01:37.301Z,18.01
2023-05-12T10:04:09.885Z,18.01
2023-05-12T10:06:43.394Z,18.02
2023-05-12T10:09:20.549Z,18.04
2023-05-12T10:11:52.818Z,18.05
2023-05-12T10:14:24.909Z,18.05
2023-05-12T10:16:54.025Z,18.08
2023-05-12T10:19:23.833Z,18.12
2023-05-12T10:21:54.661Z,18.17
2023-05-12T10:24:26.464Z,18.18
2023-05-12T10:26:56.721Z,18.19
2023-05-12T10:29:29.934Z,18.20
2023-05-12T10:31:59.513Z,18.22
2023-05-12T10:34:34.407Z,18.27
2023-05-12T10:37:08.467Z,18.34
2023-05-12T10:39:37.173Z,18.44
2023-05-12T10:42:08.505Z,18.56
2023-05-12T10:44:37.839Z,18.72
2023-05-12T10:47:15.367Z,18.84
2023-05-12T10:49:43.955Z,18.96
2023-05-12T10:52:14.643Z,19.01
2023-05-12T10:54:45.468Z,19.05
2023-05-12T10:57:18.239Z,18.99
2023-05-12T10:59:51.528Z,18.91
2023-05-12T11:02:26.466Z,18.89
2023-05-12T11:04:59.884Z,18.89
2023-05-12T11:07:32.797Z,18.90
2023-05-12T11:10:04.693Z,18.95
2023-05-12T11:12:36.720Z,18.98
2023-05-12T11:15:07.672Z,18.99
2023-05-12T11:17:40.419Z,19.04
2023-05-12T11:20:10.948Z,19.11
2023-05-12T11:22:43.455Z,19.17
2023-05-12T11:25:13.133Z,19.20
2023-05-12T11:27:49.794Z,19.19
2023-05-12T11:30:19.917Z,19.17
2023-05-12T11:32:48.624Z,19.17
2023-05-12T11:35:20.113Z,19.18
2023-05-12T11:37:49.981Z,19.19
2023-05-12T11:40:20.721Z,19.19
2023-05-12T11:42:54.108Z,19.16
2023-05-12T11:45:28.657Z,19.11
2023-05-12T11:48:08.847Z,19.08
2023-05-12T11:50:40.695Z,19.08
2023-05-12T11:53:15.138Z,19.07
2023-05-12T11:55:51.038Z,18.99
2023-05-12T11:58:27.006Z,18.98
2023-05-12T12:00:57.210Z,18.98
2023-05-12T12:03:26.562Z,18.93
2023-05-12T12:06:02.469Z,18.88
2023-05-12T12:08:32.618Z,18.87
2023-05-12T12:11:03.457Z,18.84
2023-05-12T12:13:32.184Z,18.85
2023-05-12T12:16:01.050Z,18.87
2023-05-12T12:18:29.497Z,18.88
2023-05-12T12:20:57.932Z,18.89
2023-05-12T12:23:26.378Z,18.94
2023-05-12T12:25:56.209Z,18.95
2023-05-12T12:28:24.636Z,18.93
2023-05-12T12:30:53.069Z,18.90
2023-05-12T12:33:21.663Z,18.90
2023-05-12T12:35:50.005Z,18.91
2023-05-12T12:38:18.573Z,18.89
2023-05-12T12:40:47.103Z,18.85
2023-05-12T12:43:16.997Z,18.85
2023-05-12T12:45:45.757Z,18.83
2023-05-12T12:48:14.318Z,18.85
2023-05-12T12:50:43.029Z,18.85
2023-05-12T12:53:11.443Z,18.89
2023-05-12T12:55:40.135Z,18.95
2023-05-12T12:58:08.527Z,18.98
2023-05-12T13:00:38.493Z,18.99
2023-05-12T13:03:08.174Z,19.01
2023-05-12T13:05:36.601Z,19.03
2023-05-12T13:08:05.194Z,19.07
2023-05-12T13:10:34.563Z,19.08
2023-05-12T13:13:03.033Z,19.09
2023-05-12T13:15:32.387Z,19.05
2023-05-12T13:18:02.224Z,19.02
2023-05-12T13:20:30.848Z,18.99
2023-05-12T13:22:59.207Z,18.92
2023-05-12T13:25:27.647Z,18.89
2023-05-12T13:27:56.044Z,18.90
2023-05-12T13:30:25.219Z,18.90
2023-05-12T13:32:54.277Z,18.92
2023-05-12T13:35:24.401Z,18.90
2023-05-12T13:37:52.766Z,18.88
2023-05-12T13:40:21.338Z,18.84
2023-05-12T13:42:49.764Z,18.80
2023-05-12T13:45:19.668Z,18.76
2023-05-12T13:47:48.673Z,18.75
2023-05-12T13:50:17.286Z,18.74
2023-05-12T13:52:47.630Z,18.70
2023-05-12T13:55:20.950Z,18.64
2023-05-12T13:57:50.396Z,18.55
2023-05-12T14:00:20.555Z,18.49
2023-05-12T14:02:49.167Z,18.43
2023-05-12T14:05:18.651Z,18.38
2023-05-12T14:07:48.931Z,18.34
2023-05-12T14:10:18.665Z,18.32
2023-05-12T14:12:47.983Z,18.34
2023-05-12T14:17:48.173Z,18.40
2023-05-12T14:20:16.854Z,18.42
2023-05-12T14:22:45.249Z,18.44
2023-05-12T14:25:16.266Z,18.47
2023-05-12T14:27:45.393Z,18.49
2023-05-12T14:30:15.271Z,18.49
2023-05-12T14:32:43.848Z,18.51
2023-05-12T14:35:12.283Z,18.53
2023-05-12T14:37:40.714Z,18.56
2023-05-12T14:40:11.009Z,18.58
2023-05-12T14:42:40.807Z,18.58
2023-05-12T14:45:10.736Z,18.52
2023-05-12T14:47:39.150Z,18.48
2023-05-12T14:50:08.795Z,18.43
2023-05-12T14:52:38.539Z,18.43
2023-05-12T14:55:11.901Z,18.44
2023-05-12T14:57:43.110Z,18.47
2023-05-12T15:00:14.416Z,18.51
2023-05-12T15:02:45.615Z,18.56
2023-05-12T15:05:15.456Z,18.62
2023-05-12T15:07:43.820Z,18.65
2023-05-12T15:10:12.945Z,18.66
2023-05-12T15:12:42.707Z,18.67
2023-05-12T15:15:12.206Z,18.67
2023-05-12T15:17:40.695Z,18.67
2023-05-12T15:20:10.988Z,18.67
2023-05-12T15:22:39.638Z,18.66
2023-05-12T15:25:10.157Z,18.64
2023-05-12T15:27:38.610Z,18.65
2023-05-12T15:30:11.081Z,18.67
2023-05-12T15:32:41.182Z,18.72
2023-05-12T15:35:10.671Z,18.77
2023-05-12T15:37:39.100Z,18.81
2023-05-12T15:40:09.918Z,18.83
2023-05-12T15:42:38.385Z,18.86
2023-05-12T15:45:10.181Z,18.89
2023-05-12T15:47:38.697Z,18.93
2023-05-12T15:50:10.426Z,18.97
2023-05-12T15:52:38.848Z,18.99
2023-05-12T15:55:08.177Z,19.00
2023-05-12T15:57:36.592Z,18.99
2023-05-12T16:00:07.908Z,18.97
2023-05-12T16:02:36.345Z,18.94
2023-05-12T16:05:05.381Z,18.91
2023-05-12T16:07:33.813Z,18.88
2023-05-12T16:10:03.463Z,18.82
2023-05-12T16:12:31.922Z,18.77
2023-05-12T16:15:00.507Z,18.74
2023-05-12T16:17:30.279Z,18.73
2023-05-12T16:19:58.702Z,18.72
2023-05-12T16:22:27.105Z,18.69
2023-05-12T16:24:56.530Z,18.66
2023-05-12T16:27:25.558Z,18.65
2023-05-12T16:29:54.605Z,18.64
2023-05-12T16:32:23.362Z,18.64
2023-05-12T16:34:53.051Z,18.62
2023-05-12T16:37:22.846Z,18.59
2023-05-12T16:39:51.324Z,18.56
2023-05-12T16:42:19.769Z,18.52
2023-05-12T16:44:48.814Z,18.48
2023-05-12T16:47:17.370Z,18.43
2023-05-12T16:49:45.818Z,18.38
2023-05-12T16:52:15.588Z,18.32
2023-05-12T16:54:43.969Z,18.28
2023-05-12T16:57:12.321Z,18.26
2023-05-12T16:59:40.675Z,18.22
2023-05-12T17:02:09.837Z,18.21
2023-05-12T17:04:39.456Z,18.21
2023-05-12T17:07:07.801Z,18.22
2023-05-12T17:09:37.883Z,18.20
2023-05-12T17:12:08.384Z,18.20
2023-05-12T17:14:37.218Z,18.19
2023-05-12T17:17:05.890Z,18.16
2023-05-12T17:19:34.705Z,18.10
2023-05-12T17:22:03.722Z,18.06
2023-05-12T17:24:32.467Z,18.01
2023-05-12T17:27:02.244Z,17.97
2023-05-12T17:29:30.660Z,17.93
2023-05-12T17:31:59.986Z,17.87
2023-05-12T17:34:28.356Z,17.82
2023-05-12T17:36:57.199Z,17.79
2023-05-12T17:39:25.552Z,17.74
2023-05-12T17:41:53.918Z,17.70
2023-05-12T17:44:23.708Z,17.68
2023-05-12T17:46:52.150Z,17.64
2023-05-12T17:49:20.613Z,17.62
2023-05-12T17:51:49.468Z,17.61
2023-05-12T17:54:17.939Z,17.61
2023-05-12T17:56:47.216Z,17.62
2023-05-12T17:59:15.598Z,17.64
2023-05-12T18:01:45.278Z,17.66
2023-05-12T18:04:14.028Z,17.68
2023-05-12T18:06:42.432Z,17.71
2023-05-12T18:09:10.997Z,17.71
2023-05-12T18:11:39.725Z,17.71
2023-05-12T18:14:08.426Z,17.71
2023-05-12T18:16:36.865Z,17.71
2023-05-12T18:19:06.714Z,17.68
2023-05-12T18:21:35.198Z,17.66
2023-05-12T18:24:03.829Z,17.64
2023-05-12T18:26:32.305Z,17.64
2023-05-12T18:29:00.689Z,17.63
2023-05-12T18:31:29.137Z,17.62
2023-05-12T18:33:57.608Z,17.61
2023-05-12T18:36:28.196Z,17.60
2023-05-12T18:38:56.595Z,17.60
2023-05-12T18:41:25.130Z,17.59
2023-05-12T18:43:53.970Z,17.58
2023-05-12T18:46:22.414Z,17.55
2023-05-12T18:48:51.141Z,17.52
2023-05-12T18:51:19.754Z,17.47
2023-05-12T18:53:50.088Z,17.43
2023-05-12T18:56:18.609Z,17.40
2023-05-12T18:58:46.967Z,17.36
2023-05-12T19:01:17.062Z,17.34
2023-05-12T19:03:45.807Z,17.35
2023-05-12T19:06:14.767Z,17.40
2023-05-12T19:08:43.530Z,17.41
2023-05-12T19:11:13.391Z,17.42
2023-05-12T19:13:45.389Z,17.42
2023-05-12T19:16:14.406Z,17.40
2023-05-12T19:18:43.111Z,17.37
2023-05-12T19:21:11.618Z,17.33
2023-05-12T19:23:40.021Z,17.31
2023-05-12T19:26:10.064Z,17.30
2023-05-12T19:28:39.927Z,17.26
2023-05-12T19:31:08.401Z,17.21
2023-05-12T19:33:36.898Z,17.16
2023-05-12T19:36:05.921Z,17.13
2023-05-12T19:38:34.342Z,17.10
2023-05-12T19:41:02.873Z,17.12
2023-05-12T19:43:31.287Z,17.11
2023-05-12T19:46:01.019Z,17.10
2023-05-12T19:48:29.622Z,17.10
2023-05-12T19:50:58.106Z,17.09
2023-05-12T19:53:26.870Z,17.06
2023-05-12T19:55:55.306Z,17.04
2023-05-12T19:58:23.634Z,17.01
2023-05-12T20:00:52.102Z,17.01
2023-05-12T20:03:22.075Z,17.02
2023-05-12T20:05:50.487Z,17.01
2023-05-12T20:08:18.826Z,17.02
2023-05-12T20:10:47.154Z,17.01
2023-05-12T20:13:15.532Z,17.02
2023-05-12T20:15:44.160Z,17.01
2023-05-12T20:18:14.663Z,17.00
2023-05-12T20:20:44.742Z,17.00
2023-05-12T20:23:13.131Z,17.01
2023-05-12T20:25:41.490Z,17.00
2023-05-12T20:28:11.786Z,16.99
2023-05-12T20:30:41.037Z,16.98
2023-05-12T20:33:09.428Z,16.98
2023-05-12T20:35:37.792Z,16.97
2023-05-12T20:38:07.568Z,16.98
2023-05-12T20:40:36.117Z,16.98
2023-05-12T20:43:04.841Z,16.99
2023-05-12T20:45:33.717Z,16.98
2023-05-12T20:48:02.403Z,16.98
2023-05-12T20:50:30.884Z,16.96
2023-05-12T20:52:59.387Z,16.95
2023-05-12T20:55:29.229Z,16.93
2023-05-12T20:57:57.605Z,16.93
2023-05-12T21:00:26.044Z,16.91
2023-05-12T21:02:55.560Z,16.91
2023-05-12T21:05:24.057Z,16.90
2023-05-12T21:07:52.472Z,16.89
2023-05-12T21:10:21.435Z,16.87
2023-05-12T21:12:51.983Z,16.86
2023-05-12T21:15:20.691Z,16.88
2023-05-12T21:17:49.481Z,16.89
2023-05-12T21:20:17.872Z,16.88
2023-05-12T21:22:46.685Z,16.88
2023-05-12T21:25:15.122Z,16.88
2023-05-12T21:27:43.546Z,16.89
2023-05-12T21:30:13.997Z,16.89
2023-05-12T21:32:42.426Z,16.90
2023-05-12T21:35:11.707Z,16.87
2023-05-12T21:37:40.349Z,16.85
2023-05-12T21:40:11.226Z,16.81
2023-05-12T21:42:39.662Z,16.81
2023-05-12T21:45:10.141Z,16.80
2023-05-12T21:47:39.936Z,16.79
2023-05-12T21:50:09.041Z,16.78
2023-05-12T21:52:37.464Z,16.79
2023-05-12T21:55:07.172Z,16.76
2023-05-12T21:57:36.143Z,16.74
2023-05-12T22:00:05.659Z,16.72
2023-05-12T22:02:34.065Z,16.70
2023-05-12T22:05:05.729Z,16.68
2023-05-12T22:07:34.066Z,16.68
2023-05-12T22:10:02.399Z,16.70
2023-05-12T22:12:30.768Z,16.71
2023-05-12T22:14:59.297Z,16.70
2023-05-12T22:17:27.733Z,16.70
2023-05-12T22:19:56.339Z,16.71
2023-05-12T22:22:26.448Z,16.70
2023-05-12T22:24:54.834Z,16.69
2023-05-12T22:27:23.296Z,16.70
2023-05-12T22:29:51.651Z,16.69
2023-05-12T22:32:20.012Z,16.69
2023-05-12T22:34:48.352Z,16.69
2023-05-12T22:37:17.058Z,16.67
2023-05-12T22:39:46.808Z,16.65
2023-05-12T22:42:15.183Z,16.65
2023-05-12T22:44:43.578Z,16.63
2023-05-12T22:47:12.052Z,16.62
2023-05-12T22:49:40.745Z,16.61
2023-05-12T22:52:09.201Z,16.59
2023-05-12T22:54:37.557Z,16.56
2023-05-12T22:57:07.690Z,16.55
2023-05-12T22:59:36.039Z,16.55
2023-05-12T23:02:04.390Z,16.54
2023-05-12T23:04:32.743Z,16.55
2023-05-12T23:07:01.060Z,16.58
2023-05-12T23:09:29.420Z,16.57
2023-05-12T23:11:57.786Z,16.58
2023-05-12T23:14:27.506Z,16.61
2023-05-12T23:16:55.915Z,16.63
2023-05-12T23:19:24.404Z,16.65
2023-05-12T23:21:52.737Z,16.65
2023-05-12T23:24:21.730Z,16.63
2023-05-12T23:26:50.652Z,16.60
2023-05-12T23:29:19.040Z,16.55
2023-05-12T23:31:48.920Z,16.53
2023-05-12T23:34:17.506Z,16.51
2023-05-12T23:36:45.988Z,16.51
2023-05-12T23:39:14.692Z,16.50
2023-05-12T23:41:43.380Z,16.51
2023-05-12T23:44:11.761Z,16.51
2023-05-12T23:46:40.255Z,16.51
2023-05-12T23:49:10.382Z,16.49
2023-05-12T23:51:38.777Z,16.49
2023-05-12T23:54:07.260Z,16.48
2023-05-12T23:56:35.691Z,16.48
2023-05-12T23:59:04.239Z,16.48
